Time;durP1;ratioP1;P1;durP2;ratioP2;P2;SDS_P1;SDS_P2;PMS_P1;PMS_P2;Temp;Humidity;BMP_temperature;BMP_pressure;BME280_temperature;BME280_humidity;BME280_pressure;Samples;Min_cycle;Max_cycle;Signal;HPM_P1;HPM_P2
2023/10/11 00:02:47;;;;;;;18.97;15.30;;;;;;;;;;766902;181;919068;-66
2023/10/11 00:05:13;;;;;;;18.50;15.03;;;;;;;;;;769450;182;811330;-69
2023/10/11 00:07:38;;;;;;;26.70;14.90;;;;;;;;;;773902;181;896710;-69
2023/10/11 00:10:10;;;;;;;21.30;14.53;;;;;;;;;;767889;181;916046;-65
2023/10/11 00:12:31;;;;;;;22.07;15.40;;;;;;;;;;767128;181;813409;-69
2023/10/11 00:14:57;;;;;;;28.70;15.10;;;;;;;;;;769205;181;916646;-70
2023/10/11 00:17:22;;;;;;;22.40;14.00;;;;;;;;;;769277;179;851974;-69
2023/10/11 00:19:49;;;;;;;26.70;15.03;;;;;;;;;;768788;181;917391;-67
2023/10/11 00:22:15;;;;;;;29.10;14.65;;;;;;;;;;752276;185;919188;-69
2023/10/11 00:24:40;;;;;;;21.20;14.90;;;;;;;;;;749588;187;955393;-66
2023/10/11 00:27:05;;;;;;;21.70;15.17;;;;;;;;;;775868;178;916332;-65
2023/10/11 00:29:31;;;;;;;22.57;14.97;;;;;;;;;;767589;182;909712;-66
2023/10/11 00:31:57;;;;;;;27.20;17.67;;;;;;;;;;774644;179;917571;-67
2023/10/11 00:34:24;;;;;;;22.27;15.17;;;;;;;;;;770727;181;915101;-67
2023/10/11 00:36:49;;;;;;;30.87;16.10;;;;;;;;;;770193;182;916594;-71
2023/10/11 00:39:17;;;;;;;25.98;15.60;;;;;;;;;;775459;181;812566;-68
2023/10/11 00:41:43;;;;;;;26.80;15.10;;;;;;;;;;766416;181;919421;-68
2023/10/11 00:44:08;;;;;;;26.92;16.77;;;;;;;;;;770327;181;918021;-66
2023/10/11 00:46:44;;;;;;;24.73;15.25;;;;;;;;;;757906;186;918955;-67
2023/10/11 00:49:09;;;;;;;20.60;15.53;;;;;;;;;;772084;179;918710;-67
2023/10/11 00:51:30;;;;;;;27.10;16.57;;;;;;;;;;763674;181;941724;-71
2023/10/11 00:53:56;;;;;;;33.13;17.40;;;;;;;;;;771702;178;919047;-66
2023/10/11 00:56:26;;;;;;;21.30;15.00;;;;;;;;;;771665;181;914267;-70
2023/10/11 00:58:49;;;;;;;24.37;15.43;;;;;;;;;;766729;182;918992;-71
2023/10/11 01:01:15;;;;;;;26.83;15.97;;;;;;;;;;772932;179;820020;-67
2023/10/11 01:03:41;;;;;;;23.37;16.07;;;;;;;;;;779350;177;918397;-67
2023/10/11 01:06:06;;;;;;;22.90;15.07;;;;;;;;;;767344;182;914828;-66
2023/10/11 01:08:38;;;;;;;21.37;14.97;;;;;;;;;;767615;178;914759;-71
2023/10/11 01:10:57;;;;;;;24.90;15.40;;;;;;;;;;768112;180;913900;-66
2023/10/11 01:13:23;;;;;;;24.27;15.20;;;;;;;;;;772896;179;914827;-71
2023/10/11 01:15:50;;;;;;;20.70;15.50;;;;;;;;;;766468;181;921076;-70
2023/10/11 01:18:15;;;;;;;26.98;15.45;;;;;;;;;;769700;181;915497;-66
2023/10/11 01:20:41;;;;;;;20.27;15.30;;;;;;;;;;762290;185;809060;-67
2023/10/11 01:23:07;;;;;;;24.30;15.87;;;;;;;;;;768778;181;920114;-70
2023/10/11 01:25:33;;;;;;;20.43;14.23;;;;;;;;;;768100;181;917336;-70
2023/10/11 01:27:58;;;;;;;25.20;15.67;;;;;;;;;;774182;178;938610;-66
2023/10/11 01:30:27;;;;;;;22.77;15.50;;;;;;;;;;773228;178;918724;-66
2023/10/11 01:32:54;;;;;;;24.23;15.93;;;;;;;;;;767072;181;919494;-70
2023/10/11 01:35:19;;;;;;;26.97;15.00;;;;;;;;;;774496;181;915259;-70
2023/10/11 01:37:45;;;;;;;27.10;15.32;;;;;;;;;;767099;179;920332;-70
2023/10/11 01:40:13;;;;;;;23.13;15.87;;;;;;;;;;768841;181;919534;-71
2023/10/11 01:42:39;;;;;;;24.33;14.90;;;;;;;;;;766828;180;919518;-70
2023/10/11 01:45:07;;;;;;;25.57;16.13;;;;;;;;;;760947;185;918347;-65
2023/10/11 01:47:31;;;;;;;23.10;15.53;;;;;;;;;;737998;187;917862;-70
2023/10/11 01:49:55;;;;;;;28.80;18.07;;;;;;;;;;742703;184;934111;-65
2023/10/11 01:52:21;;;;;;;26.10;14.50;;;;;;;;;;775592;182;919257;-72
2023/10/11 01:54:47;;;;;;;23.50;17.37;;;;;;;;;;774441;178;919449;-70
2023/10/11 01:57:13;;;;;;;25.33;16.13;;;;;;;;;;774411;178;909768;-66
2023/10/11 01:59:39;;;;;;;20.60;15.43;;;;;;;;;;770338;182;917583;-70
2023/10/11 02:02:09;;;;;;;25.80;16.80;;;;;;;;;;773553;178;917975;-70
2023/10/11 02:04:30;;;;;;;20.90;15.47;;;;;;;;;;762787;181;918513;-66
2023/10/11 02:06:57;;;;;;;22.83;16.80;;;;;;;;;;766713;178;919018;-67
2023/10/11 02:09:23;;;;;;;27.50;18.40;;;;;;;;;;774285;178;917253;-66
2023/10/11 02:11:52;;;;;;;26.23;16.77;;;;;;;;;;771514;181;917758;-66
2023/10/11 02:14:14;;;;;;;23.43;15.17;;;;;;;;;;769655;181;927665;-66
2023/10/11 02:16:40;;;;;;;24.73;17.07;;;;;;;;;;772571;181;913754;-70
2023/10/11 02:19:09;;;;;;;23.10;14.93;;;;;;;;;;768471;180;921386;-70
2023/10/11 02:21:31;;;;;;;26.80;16.57;;;;;;;;;;765140;182;918629;-70
2023/10/11 02:23:57;;;;;;;30.30;16.00;;;;;;;;;;773637;182;919044;-71
2023/10/11 02:26:29;;;;;;;22.20;15.40;;;;;;;;;;769998;181;915096;-70
2023/10/11 02:28:54;;;;;;;27.10;16.93;;;;;;;;;;770152;181;885855;-66
2023/10/11 02:31:24;;;;;;;29.87;18.10;;;;;;;;;;774864;178;916762;-65
2023/10/11 02:33:46;;;;;;;31.13;16.27;;;;;;;;;;772347;180;908883;-66
2023/10/11 02:36:18;;;;;;;25.03;16.33;;;;;;;;;;766611;181;918290;-69
2023/10/11 02:38:47;;;;;;;29.30;17.80;;;;;;;;;;771997;179;915846;-66
2023/10/11 02:41:05;;;;;;;29.03;17.97;;;;;;;;;;769476;181;916742;-70
2023/10/11 02:43:33;;;;;;;28.80;16.73;;;;;;;;;;767518;179;954549;-70
2023/10/11 02:45:59;;;;;;;32.37;17.63;;;;;;;;;;766722;181;916259;-70
2023/10/11 02:48:24;;;;;;;24.70;16.13;;;;;;;;;;765235;180;914083;-65
2023/10/11 02:50:54;;;;;;;27.50;17.33;;;;;;;;;;774981;180;915085;-66
2023/10/11 02:53:21;;;;;;;24.67;16.50;;;;;;;;;;770622;180;914644;-70
2023/10/11 02:55:56;;;;;;;27.43;17.10;;;;;;;;;;771807;181;915304;-66
2023/10/11 02:58:21;;;;;;;27.03;16.93;;;;;;;;;;772684;181;920740;-66
2023/10/11 03:00:44;;;;;;;24.27;15.90;;;;;;;;;;767591;181;919557;-66
2023/10/11 03:03:08;;;;;;;25.47;16.83;;;;;;;;;;750409;186;919350;-66
2023/10/11 03:05:31;;;;;;;22.47;16.30;;;;;;;;;;768320;181;917529;-65
2023/10/11 03:08:28;;;;;;;27.52;15.85;;;;;;;;;;775662;181;848612;-71
2023/10/11 03:10:43;;;;;;;19.83;13.87;;;;;;;;;;772213;180;918704;-69
2023/10/11 03:13:04;;;;;;;22.73;16.13;;;;;;;;;;773257;178;919356;-69
2023/10/11 03:15:30;;;;;;;25.13;16.20;;;;;;;;;;764061;181;918949;-70
2023/10/11 03:17:55;;;;;;;27.63;15.50;;;;;;;;;;772498;181;816287;-70
2023/10/11 03:20:28;;;;;;;26.40;17.53;;;;;;;;;;771359;180;915159;-67
2023/10/11 03:22:53;;;;;;;23.17;14.67;;;;;;;;;;768969;181;915528;-67
2023/10/11 03:25:19;;;;;;;26.50;16.37;;;;;;;;;;756849;185;918472;-66
2023/10/11 03:27:49;;;;;;;26.10;15.87;;;;;;;;;;763140;179;917526;-65
2023/10/11 03:30:13;;;;;;;24.07;15.40;;;;;;;;;;760370;182;917508;-66
2023/10/11 03:32:38;;;;;;;23.90;16.13;;;;;;;;;;764467;180;919134;-70
2023/10/11 03:35:03;;;;;;;23.20;16.70;;;;;;;;;;771665;180;937257;-66
2023/10/11 03:37:29;;;;;;;21.50;15.13;;;;;;;;;;768632;182;919758;-66
2023/10/11 03:39:56;;;;;;;27.90;17.17;;;;;;;;;;763927;182;919464;-70
2023/10/11 03:42:27;;;;;;;32.23;16.97;;;;;;;;;;758246;185;922414;-66
2023/10/11 03:44:47;;;;;;;27.67;16.87;;;;;;;;;;766360;181;920699;-66
2023/10/11 03:47:14;;;;;;;31.17;19.47;;;;;;;;;;768017;181;920356;-66
2023/10/11 03:52:22;;;;;;;23.67;16.60;;;;;;;;;;743956;185;817391;-69
2023/10/11 03:54:53;;;;;;;22.93;15.13;;;;;;;;;;769263;182;914970;-70
2023/10/11 03:57:17;;;;;;;27.93;16.30;;;;;;;;;;761325;181;867374;-72
2023/10/11 03:59:47;;;;;;;25.70;15.73;;;;;;;;;;765566;180;863997;-70
2023/10/11 04:02:10;;;;;;;28.30;16.50;;;;;;;;;;755852;185;917733;-70
2023/10/11 04:04:32;;;;;;;23.03;15.80;;;;;;;;;;757679;183;623645;-67
2023/10/11 04:07:01;;;;;;;24.50;16.13;;;;;;;;;;751280;185;618242;-70
2023/10/11 04:11:55;;;;;;;30.83;15.50;;;;;;;;;;772194;181;617052;-66
2023/10/11 04:14:25;;;;;;;26.80;15.37;;;;;;;;;;761677;181;875527;-70
2023/10/11 04:16:56;;;;;;;28.20;15.52;;;;;;;;;;771749;180;917307;-65
2023/10/11 04:19:21;;;;;;;31.50;15.87;;;;;;;;;;758176;185;793741;-65
2023/10/11 04:21:54;;;;;;;24.27;14.20;;;;;;;;;;755205;185;705221;-66
2023/10/11 04:24:20;;;;;;;23.50;15.13;;;;;;;;;;740517;187;917804;-65
2023/10/11 04:26:53;;;;;;;21.20;15.40;;;;;;;;;;769390;181;920785;-70
2023/10/11 04:29:17;;;;;;;21.57;14.20;;;;;;;;;;774416;180;814629;-71
2023/10/11 04:31:54;;;;;;;29.13;14.57;;;;;;;;;;775402;181;642807;-70
2023/10/11 04:34:14;;;;;;;23.60;14.40;;;;;;;;;;767977;181;920218;-65
2023/10/11 04:36:42;;;;;;;28.23;15.63;;;;;;;;;;771209;180;918763;-66
2023/10/11 04:39:14;;;;;;;21.47;15.20;;;;;;;;;;774848;181;632102;-70
2023/10/11 04:41:39;;;;;;;25.20;16.90;;;;;;;;;;771626;180;621427;-70
2023/10/11 04:44:06;;;;;;;25.00;14.63;;;;;;;;;;771625;181;634695;-70
2023/10/11 04:46:22;;;;;;;22.37;14.40;;;;;;;;;;773193;180;617132;-66
2023/10/11 04:48:48;;;;;;;20.20;14.23;;;;;;;;;;772185;182;818723;-70
2023/10/11 04:51:24;;;;;;;19.43;14.17;;;;;;;;;;770607;180;628895;-70
2023/10/11 04:53:56;;;;;;;22.63;14.40;;;;;;;;;;772510;181;649218;-66
2023/10/11 04:58:52;;;;;;;22.90;14.10;;;;;;;;;;774149;182;614224;-70
2023/10/11 05:01:22;;;;;;;19.70;13.17;;;;;;;;;;764843;182;631934;-70
2023/10/11 05:03:46;;;;;;;22.80;15.13;;;;;;;;;;772373;182;630641;-70
2023/10/11 05:06:20;;;;;;;31.03;14.90;;;;;;;;;;778700;180;843450;-70
2023/10/11 05:11:24;;;;;;;20.50;12.70;;;;;;;;;;765780;181;908478;-71
2023/10/11 05:13:39;;;;;;;20.60;13.60;;;;;;;;;;770632;178;917480;-66
2023/10/11 05:16:06;;;;;;;21.90;16.47;;;;;;;;;;774905;178;853038;-65
2023/10/11 05:18:31;;;;;;;21.90;12.80;;;;;;;;;;772451;180;918398;-66
2023/10/11 05:20:57;;;;;;;20.17;14.60;;;;;;;;;;769567;180;916237;-66
2023/10/11 05:23:25;;;;;;;23.60;14.00;;;;;;;;;;779502;178;918911;-70
2023/10/11 05:26:16;;;;;;;23.70;14.53;;;;;;;;;;769611;180;919581;-65
2023/10/11 05:28:44;;;;;;;23.47;13.63;;;;;;;;;;763697;179;918323;-69
2023/10/11 05:33:41;;;;;;;26.57;15.77;;;;;;;;;;766689;181;922409;-69
2023/10/11 05:51:11;;;;;;;24.27;13.43;;;;;;;;;;756637;185;918661;-71
2023/10/11 05:53:40;;;;;;;18.33;11.47;;;;;;;;;;769355;182;917397;-71
2023/10/11 05:56:03;;;;;;;19.30;12.40;;;;;;;;;;767695;179;918920;-70
2023/10/11 05:58:29;;;;;;;27.03;12.83;;;;;;;;;;772953;179;917479;-70
2023/10/11 06:00:55;;;;;;;23.70;13.07;;;;;;;;;;767224;181;819882;-70
2023/10/11 06:03:22;;;;;;;18.33;11.53;;;;;;;;;;767821;182;918913;-70
2023/10/11 06:05:51;;;;;;;23.20;12.05;;;;;;;;;;758974;186;918199;-66
2023/10/11 06:08:16;;;;;;;17.53;12.20;;;;;;;;;;774958;178;907871;-66
2023/10/11 06:10:42;;;;;;;17.53;11.70;;;;;;;;;;772775;180;919363;-67
2023/10/11 06:13:13;;;;;;;21.97;13.07;;;;;;;;;;768147;182;919834;-70
2023/10/11 06:15:35;;;;;;;14.60;10.40;;;;;;;;;;771879;181;815372;-66
2023/10/11 06:18:01;;;;;;;19.30;13.37;;;;;;;;;;768937;181;920745;-70
2023/10/11 06:20:27;;;;;;;17.13;10.80;;;;;;;;;;766554;180;905969;-65
2023/10/11 06:22:54;;;;;;;25.83;13.30;;;;;;;;;;759225;185;815234;-67
2023/10/11 06:25:49;;;;;;;20.12;10.60;;;;;;;;;;772041;179;921688;-66
2023/10/11 06:30:21;;;;;;;21.27;12.30;;;;;;;;;;771240;181;918988;-70
2023/10/11 06:32:49;;;;;;;16.77;10.77;;;;;;;;;;771112;181;818116;-66
2023/10/11 06:35:23;;;;;;;20.60;12.13;;;;;;;;;;773449;181;862693;-66
2023/10/11 06:37:38;;;;;;;19.93;12.10;;;;;;;;;;770845;180;918325;-66
2023/10/11 06:40:08;;;;;;;19.47;11.63;;;;;;;;;;759986;183;919036;-67
2023/10/11 06:42:33;;;;;;;16.40;10.67;;;;;;;;;;766897;181;918128;-66
2023/10/11 06:45:00;;;;;;;17.37;11.80;;;;;;;;;;766418;181;917962;-69
2023/10/11 06:47:25;;;;;;;19.97;12.23;;;;;;;;;;769797;181;934015;-69
2023/10/11 06:49:54;;;;;;;18.30;11.23;;;;;;;;;;759396;186;835236;-65
2023/10/11 06:52:25;;;;;;;18.57;10.87;;;;;;;;;;770340;181;913916;-67
2023/10/11 06:54:46;;;;;;;16.10;10.80;;;;;;;;;;769176;179;917904;-64
2023/10/11 06:57:16;;;;;;;14.50;10.50;;;;;;;;;;777673;177;917577;-70
2023/10/11 06:59:41;;;;;;;16.93;9.83;;;;;;;;;;768640;181;804910;-69
2023/10/11 07:02:17;;;;;;;19.70;9.73;;;;;;;;;;769235;180;920302;-64
2023/10/11 07:04:36;;;;;;;18.37;10.07;;;;;;;;;;766018;179;914961;-69
2023/10/11 07:06:58;;;;;;;12.17;9.50;;;;;;;;;;774486;177;916302;-70
2023/10/11 07:09:29;;;;;;;21.17;11.00;;;;;;;;;;765534;178;919097;-71
2023/10/11 07:11:50;;;;;;;17.70;10.10;;;;;;;;;;772910;180;919011;-71
2023/10/11 07:14:16;;;;;;;17.23;9.40;;;;;;;;;;777075;179;913375;-70
2023/10/11 07:16:42;;;;;;;14.33;10.63;;;;;;;;;;768260;181;924564;-69
2023/10/11 07:19:09;;;;;;;19.05;9.93;;;;;;;;;;770626;177;919253;-70
2023/10/11 07:24:19;;;;;;;18.07;9.90;;;;;;;;;;770069;181;918319;-65
2023/10/11 07:29:13;;;;;;;12.27;8.80;;;;;;;;;;747306;183;905985;-70
2023/10/11 07:31:48;;;;;;;12.47;9.13;;;;;;;;;;767752;181;919551;-71
2023/10/11 07:34:06;;;;;;;19.00;9.27;;;;;;;;;;757970;183;870724;-70
2023/10/11 07:36:31;;;;;;;19.47;9.87;;;;;;;;;;737385;187;920904;-66
2023/10/11 07:39:00;;;;;;;17.33;8.50;;;;;;;;;;770036;181;922223;-66
2023/10/11 07:41:27;;;;;;;14.13;8.77;;;;;;;;;;777698;178;907515;-66
2023/10/11 07:43:50;;;;;;;17.27;8.93;;;;;;;;;;750113;182;866779;-70
2023/10/11 07:46:17;;;;;;;13.43;9.03;;;;;;;;;;770858;182;818779;-64
2023/10/11 07:48:41;;;;;;;10.50;7.10;;;;;;;;;;770486;180;918360;-69
2023/10/11 07:51:10;;;;;;;13.03;7.27;;;;;;;;;;770002;181;913428;-70
2023/10/11 07:53:36;;;;;;;16.90;9.00;;;;;;;;;;767670;181;817979;-70
2023/10/11 07:56:03;;;;;;;15.20;6.90;;;;;;;;;;773813;178;918438;-70
2023/10/11 07:58:32;;;;;;;15.10;8.00;;;;;;;;;;775908;180;816434;-69
2023/10/11 08:00:55;;;;;;;12.27;7.80;;;;;;;;;;769373;178;872971;-69
2023/10/11 08:03:20;;;;;;;12.40;7.70;;;;;;;;;;768418;179;916390;-65
2023/10/11 08:05:47;;;;;;;14.32;8.45;;;;;;;;;;766861;182;917080;-69
2023/10/11 08:08:14;;;;;;;12.70;7.10;;;;;;;;;;756311;182;919080;-64
2023/10/11 08:10:44;;;;;;;13.67;7.43;;;;;;;;;;764741;181;919226;-62
2023/10/11 08:13:14;;;;;;;12.90;8.47;;;;;;;;;;767794;182;919089;-70
2023/10/11 08:15:31;;;;;;;14.00;8.07;;;;;;;;;;771447;178;919173;-65
2023/10/11 08:17:57;;;;;;;10.60;7.20;;;;;;;;;;764461;181;921503;-70
2023/10/11 08:20:27;;;;;;;16.92;8.77;;;;;;;;;;763962;181;921195;-70
2023/10/11 08:22:48;;;;;;;14.50;6.70;;;;;;;;;;756819;182;898761;-64
2023/10/11 08:25:14;;;;;;;16.30;7.43;;;;;;;;;;740570;189;816906;-71
2023/10/11 08:27:41;;;;;;;12.27;6.67;;;;;;;;;;738101;189;917528;-65
2023/10/11 08:30:09;;;;;;;10.83;6.90;;;;;;;;;;775122;179;919048;-65
2023/10/11 08:32:38;;;;;;;19.13;6.10;;;;;;;;;;774758;182;813340;-70
2023/10/11 08:35:04;;;;;;;12.13;7.40;;;;;;;;;;764738;181;919808;-65
2023/10/11 08:37:30;;;;;;;8.50;5.63;;;;;;;;;;767690;181;920688;-65
2023/10/11 08:39:54;;;;;;;13.63;6.43;;;;;;;;;;771482;180;718564;-70
2023/10/11 08:42:18;;;;;;;9.70;6.37;;;;;;;;;;771257;178;943131;-70
2023/10/11 08:44:45;;;;;;;10.80;5.70;;;;;;;;;;770090;181;920246;-64
2023/10/11 08:47:13;;;;;;;10.17;6.23;;;;;;;;;;758949;185;918308;-64
2023/10/11 08:49:41;;;;;;;9.03;5.13;;;;;;;;;;768829;181;923042;-70
2023/10/11 08:52:04;;;;;;;10.10;5.53;;;;;;;;;;767383;180;901373;-64
2023/10/11 08:54:30;;;;;;;13.17;6.67;;;;;;;;;;770761;181;815046;-64
2023/10/11 08:56:57;;;;;;;10.93;5.57;;;;;;;;;;775664;181;913862;-65
2023/10/11 08:59:25;;;;;;;9.40;5.87;;;;;;;;;;750384;185;932565;-64
2023/10/11 09:01:47;;;;;;;8.87;5.57;;;;;;;;;;755973;185;919367;-64
2023/10/11 09:04:14;;;;;;;11.80;4.60;;;;;;;;;;760500;183;818496;-66
2023/10/11 09:06:41;;;;;;;14.67;5.83;;;;;;;;;;737936;187;919343;-71
2023/10/11 09:09:14;;;;;;;10.43;5.53;;;;;;;;;;766744;181;918637;-71
2023/10/11 09:11:33;;;;;;;14.43;5.50;;;;;;;;;;758615;186;921913;-65
2023/10/11 09:14:04;;;;;;;11.40;5.10;;;;;;;;;;757350;185;918749;-66
2023/10/11 09:16:34;;;;;;;11.73;5.47;;;;;;;;;;772799;179;845077;-65
2023/10/11 09:19:05;;;;;;;7.20;4.65;;;;;;;;;;768969;180;918871;-65
2023/10/11 09:21:29;;;;;;;10.43;4.40;;;;;;;;;;760575;183;816316;-65
2023/10/11 09:23:51;;;;;;;15.20;4.80;;;;;;;;;;763283;180;919237;-64
2023/10/11 09:26:21;;;;;;;12.73;4.27;;;;;;;;;;762934;181;816561;-65
2023/10/11 09:28:47;;;;;;;10.23;4.50;;;;;;;;;;768355;179;915308;-70
2023/10/11 09:31:20;;;;;;;10.87;5.47;;;;;;;;;;774891;181;813238;-64
2023/10/11 09:33:40;;;;;;;7.83;4.33;;;;;;;;;;769929;181;917301;-70
2023/10/11 09:36:06;;;;;;;10.37;4.60;;;;;;;;;;766128;181;923825;-70
2023/10/11 09:38:39;;;;;;;8.17;4.43;;;;;;;;;;776101;181;816679;-71
2023/10/11 09:40:58;;;;;;;9.17;4.93;;;;;;;;;;767266;180;919668;-70
2023/10/11 09:43:24;;;;;;;11.87;4.57;;;;;;;;;;767204;181;915749;-64
2023/10/11 09:45:53;;;;;;;8.23;3.80;;;;;;;;;;775832;180;811466;-70
2023/10/11 09:48:17;;;;;;;9.23;5.67;;;;;;;;;;765139;182;916908;-70
2023/10/11 09:50:42;;;;;;;15.23;4.57;;;;;;;;;;765861;182;918404;-65
2023/10/11 09:53:08;;;;;;;7.77;4.00;;;;;;;;;;768700;181;919132;-66
2023/10/11 09:55:33;;;;;;;12.10;4.72;;;;;;;;;;767816;182;922346;-71
2023/10/11 09:57:59;;;;;;;12.20;5.10;;;;;;;;;;758553;182;921193;-70
2023/10/11 10:00:34;;;;;;;13.07;4.90;;;;;;;;;;753711;183;920180;-70
2023/10/11 10:02:56;;;;;;;13.23;4.07;;;;;;;;;;753093;182;922546;-70
2023/10/11 10:05:22;;;;;;;7.33;4.20;;;;;;;;;;772686;180;918503;-71
2023/10/11 10:07:47;;;;;;;9.73;4.77;;;;;;;;;;751929;182;919409;-70
2023/10/11 10:10:13;;;;;;;9.60;4.23;;;;;;;;;;759553;185;874685;-65
2023/10/11 10:12:41;;;;;;;10.43;4.50;;;;;;;;;;755211;183;817708;-71
2023/10/11 10:15:09;;;;;;;10.47;4.53;;;;;;;;;;751584;187;918463;-71
2023/10/11 10:17:34;;;;;;;7.77;4.87;;;;;;;;;;769988;180;918818;-66
2023/10/11 10:20:15;;;;;;;9.47;4.10;;;;;;;;;;774131;179;913221;-66
2023/10/11 10:22:42;;;;;;;10.93;4.53;;;;;;;;;;770909;182;917810;-70
2023/10/11 10:25:13;;;;;;;8.60;4.78;;;;;;;;;;767045;181;919965;-70
2023/10/11 10:27:38;;;;;;;8.80;4.43;;;;;;;;;;757046;183;918888;-65
2023/10/11 10:30:06;;;;;;;11.20;4.67;;;;;;;;;;760455;185;918785;-65
2023/10/11 10:32:32;;;;;;;10.93;4.40;;;;;;;;;;743144;188;918214;-71
2023/10/11 10:35:04;;;;;;;8.63;4.33;;;;;;;;;;766814;182;918698;-65
2023/10/11 10:37:35;;;;;;;14.57;4.87;;;;;;;;;;771636;179;910220;-70
2023/10/11 10:40:11;;;;;;;11.13;4.10;;;;;;;;;;770956;177;1017713;-70
2023/10/11 10:42:35;;;;;;;19.87;4.77;;;;;;;;;;757778;186;922696;-71
2023/10/11 10:44:59;;;;;;;10.83;4.33;;;;;;;;;;755436;186;912747;-66
2023/10/11 10:47:25;;;;;;;9.07;5.30;;;;;;;;;;765825;181;877506;-66
2023/10/11 10:49:53;;;;;;;8.93;3.97;;;;;;;;;;767897;181;919247;-65
2023/10/11 10:52:16;;;;;;;7.83;4.70;;;;;;;;;;764636;181;916499;-65
2023/10/11 10:54:48;;;;;;;10.70;4.20;;;;;;;;;;767605;180;920164;-71
2023/10/11 10:57:14;;;;;;;8.10;5.80;;;;;;;;;;771834;180;918726;-71
2023/10/11 10:59:42;;;;;;;14.40;4.33;;;;;;;;;;780012;178;811864;-66
2023/10/11 11:02:06;;;;;;;7.18;4.28;;;;;;;;;;765933;180;924004;-66
2023/10/11 11:04:32;;;;;;;10.30;4.70;;;;;;;;;;766730;181;816297;-70
2023/10/11 11:06:58;;;;;;;9.07;4.83;;;;;;;;;;758551;185;820924;-66
2023/10/11 11:09:26;;;;;;;18.00;4.53;;;;;;;;;;769497;181;917776;-65
2023/10/11 11:11:54;;;;;;;10.27;4.40;;;;;;;;;;773383;178;913286;-65
2023/10/11 11:14:19;;;;;;;10.33;4.50;;;;;;;;;;767727;178;918888;-71
2023/10/11 11:16:44;;;;;;;8.03;4.30;;;;;;;;;;760806;184;814778;-71
2023/10/11 11:19:10;;;;;;;13.40;5.30;;;;;;;;;;768895;180;818883;-71
2023/10/11 11:21:44;;;;;;;9.30;4.53;;;;;;;;;;769205;181;918619;-64
2023/10/11 11:24:18;;;;;;;11.00;4.77;;;;;;;;;;757996;185;919091;-66
2023/10/11 11:26:44;;;;;;;14.40;4.93;;;;;;;;;;770574;181;923819;-71
2023/10/11 11:29:16;;;;;;;9.77;4.90;;;;;;;;;;765867;181;918643;-71
2023/10/11 11:31:43;;;;;;;13.40;5.83;;;;;;;;;;749390;183;922175;-72
2023/10/11 11:34:11;;;;;;;11.13;5.20;;;;;;;;;;757247;185;816535;-66
2023/10/11 11:36:40;;;;;;;11.47;4.90;;;;;;;;;;772606;181;793160;-66
2023/10/11 11:41:33;;;;;;;11.00;5.28;;;;;;;;;;767944;180;918846;-72
2023/10/11 11:43:59;;;;;;;8.73;5.73;;;;;;;;;;773311;181;916430;-67
2023/10/11 11:46:29;;;;;;;12.60;5.80;;;;;;;;;;765704;181;917581;-66
2023/10/11 11:48:51;;;;;;;15.50;4.80;;;;;;;;;;768237;180;918781;-71
2023/10/11 11:51:16;;;;;;;8.80;4.73;;;;;;;;;;773378;177;623283;-71
2023/10/11 11:53:43;;;;;;;15.50;6.00;;;;;;;;;;772859;179;814819;-71
2023/10/11 11:56:10;;;;;;;12.93;5.20;;;;;;;;;;763735;182;796686;-70
2023/10/11 11:58:34;;;;;;;13.53;5.53;;;;;;;;;;768447;181;920809;-65
2023/10/11 12:01:15;;;;;;;9.27;4.77;;;;;;;;;;773418;181;939908;-72
2023/10/11 12:03:41;;;;;;;12.40;5.93;;;;;;;;;;766518;181;915389;-71
2023/10/11 12:06:21;;;;;;;10.50;5.30;;;;;;;;;;753526;184;816636;-71
2023/10/11 12:08:33;;;;;;;13.53;5.53;;;;;;;;;;763968;178;919379;-66
2023/10/11 12:10:59;;;;;;;13.67;5.70;;;;;;;;;;757481;185;918523;-65
2023/10/11 12:13:25;;;;;;;9.80;5.23;;;;;;;;;;766475;179;919319;-66
2023/10/11 12:15:57;;;;;;;12.50;5.63;;;;;;;;;;766390;181;915374;-71
2023/10/11 12:18:23;;;;;;;13.60;6.17;;;;;;;;;;767335;178;808288;-67
2023/10/11 12:20:49;;;;;;;11.23;5.50;;;;;;;;;;772216;181;913678;-70
2023/10/11 12:23:15;;;;;;;12.93;4.83;;;;;;;;;;770580;178;625203;-72
2023/10/11 12:25:47;;;;;;;14.60;5.73;;;;;;;;;;764929;181;634669;-71
2023/10/11 12:28:08;;;;;;;12.70;6.00;;;;;;;;;;782033;178;633960;-67
2023/10/11 12:30:35;;;;;;;9.70;4.80;;;;;;;;;;759661;182;813038;-71
2023/10/11 12:33:06;;;;;;;12.87;5.70;;;;;;;;;;764203;182;917192;-70
2023/10/11 12:35:28;;;;;;;14.23;5.57;;;;;;;;;;760827;181;806149;-66
2023/10/11 12:37:52;;;;;;;16.33;5.03;;;;;;;;;;748757;185;817121;-71
2023/10/11 12:40:23;;;;;;;16.70;5.30;;;;;;;;;;771575;178;770761;-66
2023/10/11 12:42:48;;;;;;;12.90;5.77;;;;;;;;;;767029;182;918050;-67
2023/10/11 12:45:17;;;;;;;9.47;4.57;;;;;;;;;;767976;182;875053;-65
2023/10/11 12:47:43;;;;;;;9.87;5.13;;;;;;;;;;765961;181;915697;-72
2023/10/11 12:50:09;;;;;;;11.63;5.45;;;;;;;;;;762176;182;955212;-71
2023/10/11 12:52:38;;;;;;;12.23;6.20;;;;;;;;;;767541;181;920146;-66
2023/10/11 12:55:01;;;;;;;17.83;5.83;;;;;;;;;;772382;181;901588;-71
2023/10/11 12:57:27;;;;;;;10.80;5.13;;;;;;;;;;761897;182;919457;-70
2023/10/11 12:59:53;;;;;;;16.47;5.87;;;;;;;;;;762300;181;918625;-67
2023/10/11 13:02:21;;;;;;;14.30;5.73;;;;;;;;;;776135;182;919384;-67
2023/10/11 13:04:47;;;;;;;7.97;4.83;;;;;;;;;;765035;182;922249;-71
2023/10/11 13:07:13;;;;;;;23.47;6.97;;;;;;;;;;769456;181;821873;-67
2023/10/11 13:09:36;;;;;;;8.93;5.57;;;;;;;;;;757373;185;922255;-65
2023/10/11 13:12:03;;;;;;;11.80;5.90;;;;;;;;;;769530;181;919697;-71
2023/10/11 13:14:29;;;;;;;15.03;6.40;;;;;;;;;;768270;181;917062;-66
2023/10/11 13:16:55;;;;;;;19.70;4.63;;;;;;;;;;773738;181;919965;-68
2023/10/11 13:19:24;;;;;;;11.30;5.50;;;;;;;;;;751694;184;905744;-67
2023/10/11 13:21:48;;;;;;;15.20;7.27;;;;;;;;;;765192;182;915073;-67
2023/10/11 13:24:16;;;;;;;14.03;5.53;;;;;;;;;;772077;178;809150;-66
2023/10/11 13:26:44;;;;;;;10.40;5.27;;;;;;;;;;776757;179;622662;-67
2023/10/11 13:29:11;;;;;;;13.20;6.40;;;;;;;;;;764850;181;814210;-70
2023/10/11 13:31:40;;;;;;;13.13;5.93;;;;;;;;;;769508;181;918076;-70
2023/10/11 13:34:05;;;;;;;14.13;5.40;;;;;;;;;;768402;182;908435;-70
2023/10/11 13:36:33;;;;;;;12.93;6.50;;;;;;;;;;765878;181;917612;-68
2023/10/11 13:38:54;;;;;;;11.60;6.00;;;;;;;;;;768529;181;815623;-66
2023/10/11 13:41:27;;;;;;;9.93;5.73;;;;;;;;;;765943;181;919640;-66
2023/10/11 13:43:45;;;;;;;19.50;7.00;;;;;;;;;;766153;181;913240;-70
2023/10/11 13:46:13;;;;;;;11.80;6.17;;;;;;;;;;769503;181;917792;-66
2023/10/11 13:48:39;;;;;;;13.63;6.57;;;;;;;;;;767181;180;896925;-68
2023/10/11 13:51:06;;;;;;;16.53;6.67;;;;;;;;;;757765;185;818395;-67
2023/10/11 13:53:30;;;;;;;19.37;6.80;;;;;;;;;;765936;181;915930;-66
2023/10/11 13:56:06;;;;;;;13.97;5.63;;;;;;;;;;765703;181;918940;-66
2023/10/11 13:58:22;;;;;;;13.80;6.20;;;;;;;;;;774212;181;920573;-70
2023/10/11 14:03:52;;;;;;;11.60;5.23;;;;;;;;;;772957;179;922926;-67
2023/10/11 14:06:24;;;;;;;18.73;6.70;;;;;;;;;;771037;178;887013;-70
2023/10/11 14:08:47;;;;;;;14.55;6.12;;;;;;;;;;769170;179;912683;-66
2023/10/11 14:11:17;;;;;;;16.80;6.20;;;;;;;;;;766101;181;919374;-66
2023/10/11 14:13:45;;;;;;;12.10;5.80;;;;;;;;;;771443;180;910936;-70
2023/10/11 14:16:09;;;;;;;14.37;6.80;;;;;;;;;;768700;180;904624;-68
2023/10/11 14:18:37;;;;;;;11.50;5.93;;;;;;;;;;771985;181;867837;-67
2023/10/11 14:21:01;;;;;;;12.33;6.70;;;;;;;;;;750900;183;922478;-66
2023/10/11 14:23:27;;;;;;;15.03;6.50;;;;;;;;;;735661;187;715648;-70
2023/10/11 14:25:53;;;;;;;11.40;6.50;;;;;;;;;;765856;181;916104;-69
2023/10/11 14:28:19;;;;;;;10.60;5.93;;;;;;;;;;764597;178;894040;-67
2023/10/11 14:30:49;;;;;;;12.80;6.40;;;;;;;;;;780734;178;636057;-66
2023/10/11 14:33:11;;;;;;;13.50;6.90;;;;;;;;;;766995;180;918057;-70
2023/10/11 14:35:37;;;;;;;9.50;5.47;;;;;;;;;;758683;183;849733;-67
2023/10/11 14:38:03;;;;;;;13.20;7.00;;;;;;;;;;759862;184;644532;-68
2023/10/11 14:40:30;;;;;;;9.30;5.90;;;;;;;;;;776217;178;630251;-70
2023/10/11 14:42:55;;;;;;;18.20;5.60;;;;;;;;;;766531;181;919376;-66
2023/10/11 14:45:22;;;;;;;16.17;6.70;;;;;;;;;;772256;182;814436;-68
2023/10/11 14:47:47;;;;;;;14.83;6.20;;;;;;;;;;767470;181;881332;-68
2023/10/11 14:50:14;;;;;;;16.90;8.10;;;;;;;;;;744154;182;916630;-69
2023/10/11 14:52:40;;;;;;;16.23;7.57;;;;;;;;;;762664;185;613232;-69